Island Park, ID (83433)

2:42 PM MST on February 11, 2016 (GMT -0700)
MesoWest | | Change Station
CLOSE
Current Station
Personal Weather Station
Location: Island Park, ID
Elevation: 7709 ft
Nearby Weather Stations
Active Advisory: Special Statement

Elev 7709 ft 44.53 °N, 111.41 °W | Updated 1 hour ago

Overcast
Overcast
35.0 °F
Feels Like 35.0 °F
N
0.0
Wind Variable Wind from North
Gusts 0.0 mph

Today
High -- | Low -- °F
--% Chance of Precip.
Yesterday
High -- | Low -- °F
Precip. -- in
Pressure 30.50 in
Visibility 10.0 miles
Clouds Overcast 11000 ft
Dew Point Not available.
Humidity Not available.
Rainfall in
Snow Depth Not available.
7:31 AM 5:48 PM
Waxing Crescent, 14% visible
METAR KRXE 112053Z AUTO 00000KT 10SM OVC110 00/M04 A3038 RMK AO2 SLP326 T00001044 58014
Pressure 30.50 in
Visibility 10.0 miles
Clouds Overcast 11000 ft
Dew Point Not available.
Humidity Not available.
Rainfall in
Snow Depth Not available.
7:31 AM 5:48 PM
Waxing Crescent, 14% visible
METAR KRXE 112053Z AUTO 00000KT 10SM OVC110 00/M04 A3038 RMK AO2 SLP326 T00001044 58014

10-Day Weather Forecast

Almanac

Astronomy

Feb. 11, 2016 Rise Set
Actual Time
Civil Twilight
Nautical Twilight
Astronomical Twilight
Moon
Length of Visible Light
Length of Day
Tomorrow will be .
, % of the Moon is Illuminated

Today's Extremes

State Highs State Lows

Community

WunderPhotos

Upload Photos

1,892,165 photos uploaded!

WunderBlog® & News

Nearby

Air Quality

  Air Quality AQ Index Pollutant
Not available.

Snow Depth

Station Depth Elevation

Earthquake Activity

City Distance Mag. Time & Date
Minimum magnitude displayed is 2.5.

Coastal Water Temperatures

Place Temperature

Stations

Nearby Weather Stations

Station Location Temp. Windchill Dew Point Humidity Wind Precip. Elev Updated Type
                   

Watches & Warnings

Special Statement
Issued: 2:28 PM MST Feb. 11, 2016 – National Weather Service

... Weather pattern change this Saturday into Sunday impacting
Holiday travel...

A stronger system moves through the area on Saturday into
Sunday breaking down the high pressure ridge and moves it east of
our area. Look for moderate winds over the Snake River Plain and
mountains with gusts near 30 mph on Saturday afternoon and gusts
near 40 mph on Sunday afternoon. Expect a trace to 1 inch of snow
for the Snake River Plain Sunday morning. The eastern Magic
Valley will likely see rain during this event. The lower Snake
River Plain will start out with snow early Sunday and turn to rain
in the afternoon. Mountain areas will see 1 to 3 inches of snow.
Western slopes for The Sawtooth mountains and eastern slopes for
the eastern Highlands near the Wyoming border will see 3 to 5
inches of snow. Expect blowing and drifting snow over mountain
passes particularly Galena Summit... Pine Creek Pass and Jackson
Pass.